Time;durP1;ratioP1;P1;durP2;ratioP2;P2;SDS_P1;SDS_P2;PMS_P1;PMS_P2;Temp;Humidity;BMP_temperature;BMP_pressure;BME280_temperature;BME280_humidity;BME280_pressure;Samples;Min_cycle;Max_cycle;Signal;HPM_P1;HPM_P2
2023/12/04 00:01:11;;;;;;;;;;;-1.20;99.90;;;;;;5082245;28;19967;-94
2023/12/04 00:03:36;;;;;;;;;;;-1.20;99.90;;;;;;5114133;27;19955;-94
2023/12/04 00:06:02;;;;;;;;;;;-1.20;99.90;;;;;;5120564;27;19926;-94
2023/12/04 00:08:27;;;;;;;;;;;-1.20;99.90;;;;;;5108159;28;20375;-95
2023/12/04 00:10:54;;;;;;;;;;;-1.20;99.90;;;;;;5101693;28;19928;-94
2023/12/04 00:13:19;;;;;;;;;;;-1.20;99.90;;;;;;5112138;28;19930;-94
2023/12/04 00:15:44;;;;;;;;;;;-1.20;99.90;;;;;;5113327;28;20364;-94
2023/12/04 00:18:10;;;;;;;;;;;-1.20;99.90;;;;;;5101300;28;19965;-94
2023/12/04 00:20:36;;;;;;;;;;;-1.20;99.90;;;;;;5103977;28;19919;-94
2023/12/04 00:23:02;;;;;;;;;;;-1.20;99.90;;;;;;5121988;27;19908;-94
2023/12/04 00:25:27;;;;;;;;;;;-1.20;99.90;;;;;;5081388;28;20266;-93
2023/12/04 00:27:53;;;;;;;;;;;-1.20;99.90;;;;;;5111403;27;19916;-94
2023/12/04 00:30:18;;;;;;;;;;;-1.20;99.90;;;;;;5103672;28;19923;-94
2023/12/04 00:32:44;;;;;;;;;;;-1.20;99.90;;;;;;5097745;28;19959;-94
2023/12/04 00:35:09;;;;;;;;;;;-1.20;99.90;;;;;;5102712;28;20654;-94
2023/12/04 00:37:38;;;;;;;;;;;-1.20;99.90;;;;;;5099539;28;19909;-94
2023/12/04 00:40:05;;;;;;;;;;;-1.20;99.90;;;;;;5113224;28;19916;-93
2023/12/04 00:42:30;;;;;;;;;;;-1.20;99.90;;;;;;5098129;28;19908;-94
2023/12/04 00:44:56;;;;;;;;;;;-1.20;99.90;;;;;;5090896;28;19920;-94
2023/12/04 00:47:21;;;;;;;;;;;-1.20;99.90;;;;;;5083264;28;19966;-94
2023/12/04 00:49:47;;;;;;;;;;;-1.20;99.90;;;;;;5090723;28;19912;-95
2023/12/04 00:52:12;;;;;;;;;;;-1.20;99.90;;;;;;5094490;28;19948;-94
2023/12/04 00:54:40;;;;;;;;;;;-1.30;99.90;;;;;;5098003;28;19916;-95
2023/12/04 00:57:06;;;;;;;;;;;-1.30;99.90;;;;;;5112609;28;19939;-94
2023/12/04 00:59:31;;;;;;;;;;;-1.30;99.90;;;;;;5076286;28;19944;-94
2023/12/04 01:01:57;;;;;;;;;;;-1.40;99.90;;;;;;5092732;28;19951;-95
2023/12/04 01:04:23;;;;;;;;;;;-1.40;99.90;;;;;;5103003;28;19924;-95
2023/12/04 01:06:48;;;;;;;;;;;-1.40;99.90;;;;;;5092931;28;20399;-94
2023/12/04 01:09:14;;;;;;;;;;;-1.50;99.90;;;;;;5093029;28;19939;-94
2023/12/04 01:11:39;;;;;;;;;;;-1.50;99.90;;;;;;5084040;28;20291;-94
2023/12/04 01:14:04;;;;;;;;;;;-1.50;99.90;;;;;;5093134;28;19999;-94
2023/12/04 01:16:30;;;;;;;;;;;-1.60;99.90;;;;;;5111579;28;19911;-93
2023/12/04 01:18:56;;;;;;;;;;;-1.70;99.90;;;;;;5113774;28;20409;-94
2023/12/04 01:21:21;;;;;;;;;;;-1.70;99.90;;;;;;5098528;28;19913;-94
2023/12/04 01:23:47;;;;;;;;;;;-1.70;99.90;;;;;;5108915;28;19908;-94
2023/12/04 01:26:12;;;;;;;;;;;-1.60;99.90;;;;;;5109235;28;19950;-95
2023/12/04 01:28:38;;;;;;;;;;;-1.60;99.90;;;;;;5102884;28;19964;-95
2023/12/04 01:31:03;;;;;;;;;;;-1.70;99.90;;;;;;5096825;28;20013;-94
2023/12/04 01:33:29;;;;;;;;;;;-1.70;99.90;;;;;;5096400;28;19918;-95
2023/12/04 01:35:55;;;;;;;;;;;-1.70;99.90;;;;;;5112414;28;20032;-95
2023/12/04 01:38:21;;;;;;;;;;;-1.70;99.90;;;;;;5100539;28;19915;-96
2023/12/04 01:40:47;;;;;;;;;;;-1.70;99.90;;;;;;5114707;28;19912;-95
2023/12/04 01:43:12;;;;;;;;;;;-1.70;99.90;;;;;;5095610;28;19935;-95
2023/12/04 01:45:37;;;;;;;;;;;-1.70;99.90;;;;;;5088587;28;19924;-95
2023/12/04 01:48:04;;;;;;;;;;;-1.70;99.90;;;;;;5107213;28;19970;-94
2023/12/04 01:50:29;;;;;;;;;;;-1.70;99.90;;;;;;5132816;27;19916;-94
2023/12/04 01:53:05;;;;;;;;;;;-1.70;99.90;;;;;;5077995;28;19919;-94
2023/12/04 02:02:04;;;;;;;;;;;-1.70;99.90;;;;;;5102120;28;20394;-94
2023/12/04 02:04:30;;;;;;;;;;;-1.80;99.90;;;;;;5081922;28;19927;-95
2023/12/04 02:10:00;;;;;;;;;;;-1.80;99.90;;;;;;5056926;28;20426;-95
2023/12/04 02:18:31;;;;;;;;;;;-1.90;99.90;;;;;;5040708;28;19948;-94
2023/12/04 02:24:08;;;;;;;;;;;-2.00;99.90;;;;;;5086355;28;20000;-94
2023/12/04 02:27:16;;;;;;;;;;;;;;;;;;;;;
2023/12/04 02:29:49;;;;;;;;;;;-2.10;99.90;;;;;;5050760;28;20352;-94
2023/12/04 02:32:26;;;;;;;;;;;-2.10;99.90;;;;;;5108001;28;19965;-93
2023/12/04 02:35:04;;;;;;;;;;;-2.10;99.90;;;;;;5097136;28;19911;-94
2023/12/04 02:37:42;;;;;;;;;;;-2.10;99.90;;;;;;5085557;28;19919;-92
2023/12/04 02:40:13;;;;;;;;;;;-2.20;99.90;;;;;;5082897;28;19951;-94
2023/12/04 02:42:45;;;;;;;;;;;-2.20;99.90;;;;;;5088164;28;19912;-94
2023/12/04 02:45:11;;;;;;;;;;;-2.20;99.90;;;;;;5066546;28;20010;-93
2023/12/04 02:47:36;;;;;;;;;;;-2.20;99.90;;;;;;5091775;28;20009;-94
2023/12/04 02:50:04;;;;;;;;;;;-2.20;99.90;;;;;;5107369;28;20436;-93
2023/12/04 02:52:38;;;;;;;;;;;-2.20;99.90;;;;;;5079802;28;19922;-92
2023/12/04 02:55:04;;;;;;;;;;;-2.30;99.90;;;;;;5077234;28;19915;-92
2023/12/04 02:57:30;;;;;;;;;;;-2.30;99.90;;;;;;5105524;27;20006;-92
2023/12/04 02:59:58;;;;;;;;;;;-2.30;99.90;;;;;;5095216;28;19950;-92
2023/12/04 03:02:24;;;;;;;;;;;-2.30;99.90;;;;;;5098907;28;19916;-92
2023/12/04 03:04:49;;;;;;;;;;;-2.30;99.90;;;;;;5100785;28;19947;-92
2023/12/04 03:07:15;;;;;;;;;;;-2.30;99.90;;;;;;5097634;27;19912;-91
2023/12/04 03:09:47;;;;;;;;;;;-2.30;99.90;;;;;;5079564;28;19947;-92
2023/12/04 03:12:12;;;;;;;;;;;-2.40;99.90;;;;;;5093325;28;19947;-91
2023/12/04 03:14:38;;;;;;;;;;;-2.40;99.90;;;;;;5095054;28;19912;-91
2023/12/04 03:17:06;;;;;;;;;;;-2.50;99.90;;;;;;5112644;27;19916;-91
2023/12/04 03:19:35;;;;;;;;;;;-2.50;99.90;;;;;;5076307;28;20014;-91
2023/12/04 03:22:00;;;;;;;;;;;-2.50;99.90;;;;;;5082412;28;19912;-91
2023/12/04 03:24:26;;;;;;;;;;;-2.40;99.90;;;;;;5113296;28;19946;-91
2023/12/04 03:26:57;;;;;;;;;;;-2.50;99.90;;;;;;5071712;28;19979;-90
2023/12/04 03:29:23;;;;;;;;;;;-2.50;99.90;;;;;;5101794;28;20085;-91
2023/12/04 03:31:57;;;;;;;;;;;-2.50;99.90;;;;;;5091103;28;20411;-91
2023/12/04 03:34:26;;;;;;;;;;;-2.50;99.90;;;;;;5094293;28;19908;-90
2023/12/04 03:37:09;;;;;;;;;;;-2.60;99.90;;;;;;5095333;27;19919;-90
2023/12/04 03:39:35;;;;;;;;;;;-2.60;99.90;;;;;;5109757;28;19964;-89
2023/12/04 03:42:00;;;;;;;;;;;-2.70;99.90;;;;;;5074747;28;19912;-90
2023/12/04 03:44:28;;;;;;;;;;;-2.60;99.90;;;;;;5094750;28;19927;-90
2023/12/04 03:46:54;;;;;;;;;;;-2.70;99.90;;;;;;5090076;28;19935;-89
2023/12/04 03:49:22;;;;;;;;;;;-2.60;99.90;;;;;;5100244;28;19912;-90
2023/12/04 03:51:47;;;;;;;;;;;-2.70;99.90;;;;;;5079906;28;20392;-90
2023/12/04 03:54:27;;;;;;;;;;;-2.80;99.90;;;;;;5073149;28;19959;-89
2023/12/04 03:56:53;;;;;;;;;;;-2.70;99.90;;;;;;5094891;28;19916;-90
2023/12/04 03:59:19;;;;;;;;;;;-2.70;99.90;;;;;;5075041;28;19916;-88
2023/12/04 04:01:44;;;;;;;;;;;-2.80;99.90;;;;;;5089686;28;19915;-88
2023/12/04 04:04:10;;;;;;;;;;;-2.80;99.90;;;;;;5090308;28;19924;-89
2023/12/04 04:06:38;;;;;;;;;;;-2.80;99.90;;;;;;5090305;28;20293;-88
2023/12/04 04:09:04;;;;;;;;;;;-2.80;99.90;;;;;;5061250;28;19951;-88
2023/12/04 04:11:30;;;;;;;;;;;-2.80;99.90;;;;;;5108139;28;20021;-88
2023/12/04 04:13:55;;;;;;;;;;;-2.80;99.90;;;;;;5096494;28;20615;-89
2023/12/04 04:16:21;;;;;;;;;;;-2.80;99.90;;;;;;5092721;28;19916;-88
2023/12/04 04:18:46;;;;;;;;;;;-2.80;99.90;;;;;;5087389;28;19933;-87
2023/12/04 04:21:22;;;;;;;;;;;-2.90;99.90;;;;;;5097759;28;19921;-88
2023/12/04 04:23:48;;;;;;;;;;;-2.90;99.90;;;;;;5075499;28;19912;-88
2023/12/04 04:26:13;;;;;;;;;;;-2.90;99.90;;;;;;5075360;28;20307;-88
2023/12/04 04:28:39;;;;;;;;;;;-2.90;99.90;;;;;;5100964;28;20002;-88
2023/12/04 04:31:04;;;;;;;;;;;-2.90;99.90;;;;;;5091571;28;19965;-88
2023/12/04 04:33:30;;;;;;;;;;;-2.90;99.90;;;;;;5098083;28;19919;-87
2023/12/04 04:35:55;;;;;;;;;;;-3.00;99.90;;;;;;5071698;28;19912;-88
2023/12/04 04:38:21;;;;;;;;;;;-3.00;99.90;;;;;;5091530;28;19923;-87
2023/12/04 04:40:46;;;;;;;;;;;-3.00;99.90;;;;;;5093339;28;20003;-86
2023/12/04 04:43:12;;;;;;;;;;;-3.00;99.90;;;;;;5092156;28;19912;-87
2023/12/04 04:45:37;;;;;;;;;;;-2.90;99.90;;;;;;5101870;28;19927;-88
2023/12/04 04:48:03;;;;;;;;;;;-2.90;99.90;;;;;;5078076;28;20423;-88
2023/12/04 04:50:29;;;;;;;;;;;-3.10;99.90;;;;;;5079141;28;19919;-88
2023/12/04 04:52:54;;;;;;;;;;;-3.00;99.90;;;;;;5091982;28;19916;-88
2023/12/04 04:55:20;;;;;;;;;;;-3.00;99.90;;;;;;5095326;28;19963;-86
2023/12/04 04:57:45;;;;;;;;;;;-2.90;99.90;;;;;;5072742;28;19963;-87
2023/12/04 05:00:11;;;;;;;;;;;-2.90;99.90;;;;;;5102101;28;19917;-87
2023/12/04 05:02:36;;;;;;;;;;;-2.80;99.90;;;;;;5093372;28;20432;-86
2023/12/04 05:05:03;;;;;;;;;;;-2.80;99.90;;;;;;5101030;28;19920;-87
2023/12/04 05:07:28;;;;;;;;;;;-2.80;99.90;;;;;;5097201;28;20120;-86
2023/12/04 05:09:54;;;;;;;;;;;-2.80;99.90;;;;;;5104853;28;20014;-87
2023/12/04 05:12:19;;;;;;;;;;;-2.80;99.90;;;;;;5093044;28;19920;-86
2023/12/04 05:14:45;;;;;;;;;;;-2.80;99.90;;;;;;5091588;28;19913;-87
2023/12/04 05:17:10;;;;;;;;;;;-2.80;99.90;;;;;;5083800;28;20391;-87
2023/12/04 05:20:05;;;;;;;;;;;-2.80;99.90;;;;;;5075090;28;19917;-87
2023/12/04 05:22:39;;;;;;;;;;;-2.80;99.90;;;;;;5092663;28;19919;-88
2023/12/04 05:25:13;;;;;;;;;;;-2.80;99.90;;;;;;5097234;28;19927;-87
2023/12/04 05:27:38;;;;;;;;;;;-2.80;99.90;;;;;;5108553;28;19920;-86
2023/12/04 05:30:04;;;;;;;;;;;-2.90;99.90;;;;;;5107682;28;20284;-87
2023/12/04 05:32:30;;;;;;;;;;;-2.90;99.90;;;;;;5087732;28;19943;-87
2023/12/04 05:35:11;;;;;;;;;;;-3.00;99.90;;;;;;5081605;28;20363;-87
2023/12/04 05:37:37;;;;;;;;;;;-2.90;99.90;;;;;;5074373;28;19925;-87
2023/12/04 05:40:05;;;;;;;;;;;-2.90;99.90;;;;;;5096644;28;19911;-87
2023/12/04 05:42:31;;;;;;;;;;;-3.00;99.90;;;;;;5062400;28;19912;-87
2023/12/04 05:44:57;;;;;;;;;;;-3.00;99.90;;;;;;5087665;28;19930;-86
2023/12/04 05:47:22;;;;;;;;;;;-2.90;99.90;;;;;;5090823;28;19916;-86
2023/12/04 05:49:48;;;;;;;;;;;-3.00;99.90;;;;;;5073260;28;19923;-87
2023/12/04 05:52:25;;;;;;;;;;;-3.00;99.90;;;;;;5073435;28;19970;-87
2023/12/04 05:54:51;;;;;;;;;;;-3.10;99.90;;;;;;5090600;28;20670;-86
2023/12/04 05:57:17;;;;;;;;;;;-3.00;99.90;;;;;;5070120;28;19922;-84
2023/12/04 05:59:48;;;;;;;;;;;-3.00;99.90;;;;;;5092264;28;19920;-86
2023/12/04 06:02:23;;;;;;;;;;;-2.90;99.90;;;;;;5064481;28;19949;-86
2023/12/04 06:05:23;;;;;;;;;;;-2.90;99.90;;;;;;5093204;28;19927;-87
2023/12/04 06:07:49;;;;;;;;;;;-2.80;99.90;;;;;;5104353;28;19923;-87
2023/12/04 06:10:14;;;;;;;;;;;-2.70;99.90;;;;;;5090672;28;20288;-86
2023/12/04 06:12:40;;;;;;;;;;;-2.60;99.90;;;;;;5098523;28;19912;-85
2023/12/04 06:15:06;;;;;;;;;;;-2.60;99.90;;;;;;5090861;28;19919;-86
2023/12/04 06:17:34;;;;;;;;;;;-2.50;99.90;;;;;;5083372;28;19916;-86
2023/12/04 06:20:00;;;;;;;;;;;-2.50;99.90;;;;;;5107738;28;19916;-86
2023/12/04 06:22:46;;;;;;;;;;;-2.50;99.90;;;;;;5094623;28;20515;-86
2023/12/04 06:25:12;;;;;;;;;;;-2.40;99.90;;;;;;5110785;28;20368;-85
2023/12/04 06:27:47;;;;;;;;;;;-2.40;99.90;;;;;;5111981;28;19923;-86
2023/12/04 06:30:13;;;;;;;;;;;-2.40;99.90;;;;;;5078996;28;19920;-86
2023/12/04 06:32:38;;;;;;;;;;;-2.30;99.90;;;;;;5104426;28;19919;-86
2023/12/04 06:35:04;;;;;;;;;;;-2.30;99.90;;;;;;5093354;28;19912;-85
2023/12/04 06:37:31;;;;;;;;;;;-2.30;99.90;;;;;;5105885;28;20280;-86
2023/12/04 06:39:59;;;;;;;;;;;-2.20;99.90;;;;;;5110268;28;19923;-84
2023/12/04 06:42:28;;;;;;;;;;;-2.30;99.90;;;;;;5090550;28;19916;-85
2023/12/04 06:45:02;;;;;;;;;;;-2.30;99.90;;;;;;5092927;28;19966;-86
2023/12/04 06:47:30;;;;;;;;;;;-2.40;99.90;;;;;;5093377;28;19927;-87
2023/12/04 06:49:56;;;;;;;;;;;-2.40;99.90;;;;;;5105614;28;19965;-87
2023/12/04 06:52:53;;;;;;;;;;;;;;;;;;;;;
2023/12/04 06:55:31;;;;;;;;;;;-2.40;99.90;;;;;;5111970;28;19912;-85
2023/12/04 06:58:01;;;;;;;;;;;-2.30;99.90;;;;;;5112106;28;19934;-86
2023/12/04 07:00:26;;;;;;;;;;;-2.30;99.90;;;;;;5109188;28;19920;-86
2023/12/04 07:02:52;;;;;;;;;;;-2.30;99.90;;;;;;5098906;28;19942;-86
2023/12/04 07:05:19;;;;;;;;;;;-2.30;99.90;;;;;;5093151;28;20303;-86
2023/12/04 07:07:44;;;;;;;;;;;-2.40;99.90;;;;;;5107156;28;19927;-86
2023/12/04 07:10:14;;;;;;;;;;;-2.40;99.90;;;;;;5111605;28;19912;-85
2023/12/04 07:12:41;;;;;;;;;;;-2.40;99.90;;;;;;5109544;28;19916;-86
2023/12/04 07:15:11;;;;;;;;;;;-2.40;99.90;;;;;;5092783;28;19912;-86
2023/12/04 07:17:57;;;;;;;;;;;-2.30;99.90;;;;;;5111774;28;19941;-86
2023/12/04 07:20:23;;;;;;;;;;;-2.40;99.90;;;;;;5100550;28;19908;-86
2023/12/04 07:22:49;;;;;;;;;;;-2.40;99.90;;;;;;5111721;28;19923;-86
2023/12/04 07:25:23;;;;;;;;;;;-2.40;99.90;;;;;;5111719;28;19915;-87
2023/12/04 07:28:17;;;;;;;;;;;-2.40;99.90;;;;;;5107214;28;20018;-86
2023/12/04 07:30:46;;;;;;;;;;;-2.40;99.90;;;;;;5111479;28;19912;-86
2023/12/04 07:33:29;;;;;;;;;;;-2.40;99.90;;;;;;5092280;28;19923;-85
2023/12/04 07:36:00;;;;;;;;;;;-2.40;99.90;;;;;;5094887;28;19912;-86
2023/12/04 07:38:55;;;;;;;;;;;;;;;;;;;;;
2023/12/04 07:41:17;;;;;;;;;;;-2.40;99.90;;;;;;5099239;28;20545;-85
2023/12/04 07:43:43;;;;;;;;;;;-2.20;99.90;;;;;;5110763;28;19915;-85
2023/12/04 07:46:09;;;;;;;;;;;-2.20;99.90;;;;;;5088206;28;19927;-83
2023/12/04 07:48:35;;;;;;;;;;;-2.20;99.90;;;;;;5108454;28;19916;-84
2023/12/04 07:51:00;;;;;;;;;;;-2.20;99.90;;;;;;5091210;28;20257;-84
2023/12/04 07:53:32;;;;;;;;;;;-2.10;99.90;;;;;;5079572;28;19912;-84
2023/12/04 07:56:08;;;;;;;;;;;-2.10;99.90;;;;;;5084212;28;19984;-84
2023/12/04 07:58:34;;;;;;;;;;;-2.10;99.90;;;;;;5110097;28;19920;-85
2023/12/04 08:00:59;;;;;;;;;;;-2.10;99.90;;;;;;5091262;28;20296;-84
2023/12/04 08:03:25;;;;;;;;;;;-2.10;99.90;;;;;;5096530;28;19963;-84
2023/12/04 08:06:16;;;;;;;;;;;-2.10;99.90;;;;;;5103074;27;19916;-85
2023/12/04 08:08:41;;;;;;;;;;;-2.10;99.90;;;;;;5105904;27;19943;-85
2023/12/04 08:11:09;;;;;;;;;;;-2.00;99.90;;;;;;5082295;28;19975;-86
2023/12/04 08:13:35;;;;;;;;;;;-2.10;99.90;;;;;;5107493;28;19916;-86
2023/12/04 08:16:00;;;;;;;;;;;-2.00;99.90;;;;;;5106341;28;19919;-86
2023/12/04 08:18:27;;;;;;;;;;;-2.00;99.90;;;;;;5088686;28;20341;-86
2023/12/04 08:20:56;;;;;;;;;;;-2.00;99.90;;;;;;5107299;28;19912;-87
2023/12/04 08:23:22;;;;;;;;;;;-2.00;99.90;;;;;;5087633;28;20006;-85
2023/12/04 08:25:48;;;;;;;;;;;-1.90;99.90;;;;;;5085462;28;20356;-86
2023/12/04 08:28:13;;;;;;;;;;;-1.90;99.90;;;;;;5105457;28;19961;-86
2023/12/04 08:30:38;;;;;;;;;;;-1.90;99.90;;;;;;5086472;28;20158;-86
2023/12/04 08:33:04;;;;;;;;;;;-1.90;99.90;;;;;;5103751;28;19916;-86
2023/12/04 08:35:29;;;;;;;;;;;-1.90;99.90;;;;;;5104492;28;19918;-88
2023/12/04 08:37:55;;;;;;;;;;;-1.90;99.90;;;;;;5107014;28;20007;-88
2023/12/04 08:40:20;;;;;;;;;;;-1.90;99.90;;;;;;5107150;28;19912;-87
2023/12/04 08:42:46;;;;;;;;;;;-1.80;99.90;;;;;;5088912;28;19915;-87
2023/12/04 08:45:11;;;;;;;;;;;-1.80;99.90;;;;;;5097292;28;19950;-87
2023/12/04 08:47:37;;;;;;;;;;;-1.70;99.90;;;;;;5088408;28;20007;-86
2023/12/04 08:50:02;;;;;;;;;;;-1.70;99.90;;;;;;5089084;28;19986;-86
2023/12/04 08:52:28;;;;;;;;;;;-1.70;99.90;;;;;;5088389;28;19912;-86
2023/12/04 08:54:54;;;;;;;;;;;-1.60;99.90;;;;;;5085529;28;19962;-86
2023/12/04 08:57:19;;;;;;;;;;;-1.70;99.90;;;;;;5104760;28;20015;-87
2023/12/04 08:59:45;;;;;;;;;;;-1.70;99.90;;;;;;5105406;28;20376;-86
2023/12/04 09:02:10;;;;;;;;;;;-1.60;99.90;;;;;;5106434;28;19912;-88
2023/12/04 09:04:36;;;;;;;;;;;-1.60;99.90;;;;;;5082920;28;20059;-87
2023/12/04 09:07:01;;;;;;;;;;;-1.70;99.90;;;;;;5085928;28;20280;-87
2023/12/04 09:09:26;;;;;;;;;;;-1.60;99.90;;;;;;5079319;28;19958;-87
2023/12/04 09:11:52;;;;;;;;;;;-1.60;99.90;;;;;;5085237;28;19938;-88
2023/12/04 09:14:17;;;;;;;;;;;-1.60;99.90;;;;;;5086152;28;19919;-88
2023/12/04 09:16:43;;;;;;;;;;;-1.60;99.90;;;;;;5074414;28;19958;-88
2023/12/04 09:19:08;;;;;;;;;;;-1.60;99.90;;;;;;5067593;28;20337;-87
2023/12/04 09:21:35;;;;;;;;;;;-1.60;99.90;;;;;;5073174;28;19920;-87
2023/12/04 09:24:01;;;;;;;;;;;-1.60;99.90;;;;;;5068303;28;19963;-88
2023/12/04 09:26:26;;;;;;;;;;;-1.60;99.90;;;;;;5062769;28;19989;-87
2023/12/04 09:28:51;;;;;;;;;;;-1.60;99.90;;;;;;5071645;28;19917;-88
2023/12/04 09:31:18;;;;;;;;;;;-1.50;99.90;;;;;;5072546;28;19920;-87
2023/12/04 09:33:43;;;;;;;;;;;-1.40;99.90;;;;;;5067500;28;19954;-86
2023/12/04 09:36:08;;;;;;;;;;;-1.40;99.90;;;;;;5069659;28;19916;-86
2023/12/04 09:38:35;;;;;;;;;;;-1.40;99.90;;;;;;5071184;28;19921;-89
2023/12/04 09:41:02;;;;;;;;;;;-1.40;99.90;;;;;;5072873;28;20622;-88
2023/12/04 09:43:31;;;;;;;;;;;-1.40;99.90;;;;;;5063551;28;20435;-90
2023/12/04 09:45:57;;;;;;;;;;;-1.40;99.90;;;;;;5069434;28;19970;-89
2023/12/04 09:48:24;;;;;;;;;;;-1.40;99.90;;;;;;5070977;28;19912;-89
2023/12/04 09:50:50;;;;;;;;;;;-1.30;99.90;;;;;;5059563;28;20254;-88
2023/12/04 09:53:15;;;;;;;;;;;-1.30;99.90;;;;;;5056143;28;20011;-88
2023/12/04 09:55:41;;;;;;;;;;;-1.30;99.90;;;;;;5066355;28;19962;-89
2023/12/04 09:58:07;;;;;;;;;;;-1.30;99.90;;;;;;5070721;28;19960;-90
2023/12/04 10:00:33;;;;;;;;;;;-1.30;99.90;;;;;;5062866;28;20335;-88
2023/12/04 10:02:59;;;;;;;;;;;-1.40;99.90;;;;;;5070080;28;19958;-89
2023/12/04 10:05:25;;;;;;;;;;;-1.30;99.90;;;;;;5067934;28;20483;-89
2023/12/04 10:07:50;;;;;;;;;;;-1.30;99.90;;;;;;5067233;28;19944;-91
2023/12/04 10:10:15;;;;;;;;;;;-1.30;99.90;;;;;;5068087;28;19917;-88
2023/12/04 10:12:42;;;;;;;;;;;-1.30;99.90;;;;;;5062623;28;19970;-91
2023/12/04 10:15:09;;;;;;;;;;;-1.30;99.90;;;;;;5061395;28;20396;-91
2023/12/04 10:17:37;;;;;;;;;;;-1.20;99.90;;;;;;5065242;28;19921;-91
2023/12/04 10:20:10;;;;;;;;;;;-1.20;99.90;;;;;;5068869;28;19920;-89
2023/12/04 10:22:36;;;;;;;;;;;-1.20;99.90;;;;;;5070861;28;19948;-89
2023/12/04 10:25:13;;;;;;;;;;;-1.20;99.90;;;;;;5062627;28;19971;-89
2023/12/04 10:27:39;;;;;;;;;;;-1.30;99.90;;;;;;5070514;28;19919;-91
2023/12/04 10:30:06;;;;;;;;;;;-1.30;99.90;;;;;;5070375;28;19912;-92
2023/12/04 10:32:36;;;;;;;;;;;-1.20;99.90;;;;;;5068511;28;19963;-90
2023/12/04 10:35:02;;;;;;;;;;;-1.20;99.90;;;;;;5070556;28;19916;-89
2023/12/04 10:37:29;;;;;;;;;;;-1.20;99.90;;;;;;5068843;28;19920;-89
2023/12/04 10:39:54;;;;;;;;;;;-1.20;99.90;;;;;;5068666;28;19920;-90
2023/12/04 10:42:23;;;;;;;;;;;-1.10;99.90;;;;;;5072496;28;19919;-92
2023/12/04 10:44:51;;;;;;;;;;;-1.10;99.90;;;;;;5072067;28;20380;-91
2023/12/04 10:47:17;;;;;;;;;;;-1.10;99.90;;;;;;5070123;28;19956;-90
2023/12/04 10:49:46;;;;;;;;;;;-1.20;99.90;;;;;;5073408;28;20376;-90
2023/12/04 10:52:12;;;;;;;;;;;-1.10;99.90;;;;;;5071550;28;19958;-91
2023/12/04 10:54:38;;;;;;;;;;;-1.10;99.90;;;;;;5069046;28;19924;-91
2023/12/04 10:57:09;;;;;;;;;;;-1.10;99.90;;;;;;5068646;28;19943;-91
2023/12/04 11:00:00;;;;;;;;;;;-1.10;99.90;;;;;;5071183;28;19912;-91
2023/12/04 11:02:29;;;;;;;;;;;-1.10;99.90;;;;;;5065785;28;19920;-90
2023/12/04 11:04:58;;;;;;;;;;;-1.10;99.90;;;;;;5065844;28;19970;-92
2023/12/04 11:07:27;;;;;;;;;;;-1.10;99.90;;;;;;5070835;28;20020;-93
2023/12/04 11:10:08;;;;;;;;;;;-1.00;99.90;;;;;;5070501;28;19920;-93
2023/12/04 11:12:34;;;;;;;;;;;-1.00;99.90;;;;;;5065972;28;19913;-93
2023/12/04 11:15:34;;;;;;;;;;;-1.10;99.90;;;;;;5071538;28;19923;-92
2023/12/04 11:18:04;;;;;;;;;;;-1.10;99.90;;;;;;5058595;28;19916;-90
2023/12/04 11:20:33;;;;;;;;;;;-1.10;99.90;;;;;;5070560;28;19920;-90
2023/12/04 11:23:11;;;;;;;;;;;-1.20;99.90;;;;;;5069628;28;19913;-91
2023/12/04 11:25:38;;;;;;;;;;;-1.10;99.90;;;;;;5070656;28;19928;-91
2023/12/04 11:28:03;;;;;;;;;;;-1.00;99.90;;;;;;5070576;28;19920;-93
2023/12/04 11:30:29;;;;;;;;;;;-1.10;99.90;;;;;;5071323;28;20274;-91
2023/12/04 11:32:57;;;;;;;;;;;-1.10;99.90;;;;;;5072715;28;19912;-93
2023/12/04 11:35:25;;;;;;;;;;;-1.00;99.90;;;;;;5070211;28;19942;-92
2023/12/04 11:37:53;;;;;;;;;;;-1.10;99.90;;;;;;5063601;28;19913;-92
2023/12/04 11:40:19;;;;;;;;;;;-1.10;99.90;;;;;;5071717;28;19982;-95
2023/12/04 11:42:44;;;;;;;;;;;-1.00;99.90;;;;;;5073402;28;20389;-95
2023/12/04 11:45:10;;;;;;;;;;;-1.00;99.90;;;;;;5068161;28;19973;-93
2023/12/04 11:48:10;;;;;;;;;;;-1.00;99.90;;;;;;5060827;28;20560;-92
2023/12/04 11:50:38;;;;;;;;;;;-1.10;99.90;;;;;;5062738;28;19920;-93
2023/12/04 11:53:04;;;;;;;;;;;-1.20;99.90;;;;;;5068760;28;19916;-92
2023/12/04 11:55:29;;;;;;;;;;;-1.20;99.90;;;;;;5056489;28;19923;-92
2023/12/04 12:00:56;;;;;;;;;;;-1.10;99.90;;;;;;5056874;28;19912;-91
2023/12/04 12:03:31;;;;;;;;;;;-1.10;99.90;;;;;;5072108;28;20414;-92
2023/12/04 12:06:03;;;;;;;;;;;-1.20;99.90;;;;;;5071252;28;20037;-92
2023/12/04 12:08:28;;;;;;;;;;;-1.20;99.90;;;;;;5089717;28;19912;-92
2023/12/04 12:10:54;;;;;;;;;;;-1.20;99.90;;;;;;5071294;28;20421;-91
2023/12/04 12:13:46;;;;;;;;;;;-1.20;99.90;;;;;;5070544;28;19955;-92
2023/12/04 12:16:41;;;;;;;;;;;-1.20;99.90;;;;;;5060156;28;19958;-93
2023/12/04 12:19:07;;;;;;;;;;;-1.20;99.90;;;;;;5083979;28;19912;-91
2023/12/04 12:21:41;;;;;;;;;;;-1.20;99.90;;;;;;5092415;28;19977;-91
2023/12/04 12:24:06;;;;;;;;;;;-1.20;99.90;;;;;;5072576;28;19965;-93
2023/12/04 12:26:35;;;;;;;;;;;-1.30;99.90;;;;;;5075628;28;19979;-93
2023/12/04 12:29:01;;;;;;;;;;;-1.20;99.90;;;;;;5075007;28;20295;-93
2023/12/04 12:31:26;;;;;;;;;;;-1.30;99.90;;;;;;5074352;28;19930;-92
2023/12/04 12:33:52;;;;;;;;;;;-1.20;99.90;;;;;;5074646;28;20034;-92
2023/12/04 12:36:18;;;;;;;;;;;-1.20;99.90;;;;;;5075481;28;19950;-92
2023/12/04 12:38:49;;;;;;;;;;;-1.30;99.90;;;;;;5075648;28;20015;-93
2023/12/04 12:41:18;;;;;;;;;;;-1.30;99.90;;;;;;5093320;28;19919;-92
2023/12/04 12:43:51;;;;;;;;;;;-1.30;99.90;;;;;;5092832;28;20367;-93
2023/12/04 12:46:17;;;;;;;;;;;-1.30;99.90;;;;;;5073160;28;20439;-92
2023/12/04 12:48:52;;;;;;;;;;;-1.30;99.90;;;;;;5070814;28;20022;-96
2023/12/04 12:51:17;;;;;;;;;;;-1.30;99.90;;;;;;5074345;28;19947;-90
2023/12/04 12:54:01;;;;;;;;;;;-1.20;99.90;;;;;;5094870;28;19962;-93
2023/12/04 12:56:26;;;;;;;;;;;-1.20;99.90;;;;;;5075363;28;19919;-94
2023/12/04 12:58:52;;;;;;;;;;;-1.20;99.90;;;;;;5096937;28;19908;-92
2023/12/04 13:01:18;;;;;;;;;;;-1.20;99.90;;;;;;5078360;28;19912;-93
2023/12/04 13:03:47;;;;;;;;;;;-1.20;99.90;;;;;;5070721;28;20326;-92
2023/12/04 13:06:12;;;;;;;;;;;-1.20;99.90;;;;;;5093148;28;19972;-92
2023/12/04 13:08:38;;;;;;;;;;;-1.30;99.90;;;;;;5073699;28;19947;-91
2023/12/04 13:11:04;;;;;;;;;;;-1.30;99.90;;;;;;5077269;28;19962;-92
2023/12/04 13:13:30;;;;;;;;;;;-1.20;99.90;;;;;;5095517;28;19938;-92
2023/12/04 13:16:30;;;;;;;;;;;-1.30;99.90;;;;;;5077476;28;19912;-92
2023/12/04 13:18:55;;;;;;;;;;;-1.20;99.90;;;;;;5059367;28;19912;-91
2023/12/04 13:21:21;;;;;;;;;;;-1.20;99.90;;;;;;5057689;28;19913;-91
2023/12/04 13:23:46;;;;;;;;;;;-1.20;99.90;;;;;;5073046;28;19923;-96
2023/12/04 13:26:12;;;;;;;;;;;-1.20;99.90;;;;;;5057055;28;19931;-93
2023/12/04 13:28:37;;;;;;;;;;;-1.20;99.90;;;;;;5091398;28;20383;-92
2023/12/04 13:31:04;;;;;;;;;;;-1.20;99.90;;;;;;5097004;28;19912;-93
2023/12/04 13:33:30;;;;;;;;;;;-1.10;99.90;;;;;;5086997;28;20003;-94
2023/12/04 13:35:55;;;;;;;;;;;-1.10;99.90;;;;;;5076782;28;19993;-96
2023/12/04 13:38:21;;;;;;;;;;;-1.00;99.90;;;;;;5078166;28;20466;-93
2023/12/04 13:40:59;;;;;;;;;;;-1.00;99.90;;;;;;5095980;28;19908;-96
2023/12/04 13:46:10;;;;;;;;;;;-1.00;99.90;;;;;;5082025;28;20403;-96
2023/12/04 13:48:38;;;;;;;;;;;-1.00;99.90;;;;;;5071903;28;19913;-95
2023/12/04 13:51:03;;;;;;;;;;;-1.00;99.90;;;;;;5075555;28;19915;-94
2023/12/04 13:53:33;;;;;;;;;;;-1.00;99.90;;;;;;5077054;28;19912;-95
2023/12/04 13:58:44;;;;;;;;;;;-0.90;99.90;;;;;;5091436;28;19913;-95
2023/12/04 14:01:13;;;;;;;;;;;-0.90;99.90;;;;;;5093039;28;20340;-93
2023/12/04 14:03:42;;;;;;;;;;;-0.90;99.90;;;;;;5076489;28;19922;-96
2023/12/04 14:06:09;;;;;;;;;;;-0.90;99.90;;;;;;5091989;28;20419;-95
2023/12/04 14:08:35;;;;;;;;;;;-0.90;99.90;;;;;;5068466;28;20360;-96
2023/12/04 14:11:01;;;;;;;;;;;-0.90;99.90;;;;;;5095969;28;19924;-94
2023/12/04 14:13:27;;;;;;;;;;;-0.90;99.90;;;;;;5076451;28;19908;-94
2023/12/04 14:15:53;;;;;;;;;;;-0.90;99.90;;;;;;5069159;28;19919;-93
2023/12/04 14:18:18;;;;;;;;;;;-0.90;99.90;;;;;;5076716;28;19912;-94
2023/12/04 14:20:44;;;;;;;;;;;-0.90;99.90;;;;;;5094248;28;19923;-95
2023/12/04 14:23:09;;;;;;;;;;;-1.00;99.90;;;;;;5077718;28;19901;-96
2023/12/04 14:25:35;;;;;;;;;;;-1.00;99.90;;;;;;5089202;28;20280;-94
2023/12/04 14:28:01;;;;;;;;;;;-1.00;99.90;;;;;;5093252;28;19916;-93
2023/12/04 14:30:27;;;;;;;;;;;-1.10;99.90;;;;;;5076134;28;19927;-95
2023/12/04 14:32:53;;;;;;;;;;;-1.10;99.90;;;;;;5090736;28;19939;-95
2023/12/04 14:35:18;;;;;;;;;;;-1.00;99.90;;;;;;5095843;28;19919;-96
2023/12/04 14:37:44;;;;;;;;;;;-1.10;99.90;;;;;;5095085;28;20318;-95
2023/12/04 14:40:11;;;;;;;;;;;-1.10;99.90;;;;;;5076969;28;19966;-94
2023/12/04 14:42:37;;;;;;;;;;;-1.10;99.90;;;;;;5076041;28;19977;-95
2023/12/04 14:45:02;;;;;;;;;;;-1.10;99.90;;;;;;5075421;28;19924;-94
2023/12/04 14:47:28;;;;;;;;;;;-1.10;99.90;;;;;;5093846;28;19951;-95
2023/12/04 14:49:55;;;;;;;;;;;-1.10;99.90;;;;;;5075455;28;20015;-93
2023/12/04 14:52:22;;;;;;;;;;;-1.10;99.90;;;;;;5076064;28;19912;-94
2023/12/04 15:11:25;;;;;;;;;;;-1.10;99.90;;;;;;5090481;28;20387;-93